createdAt,value
2024-01-24T00:00:45.232Z,96447.00
2024-01-24T00:01:45.079Z,96441.00
2024-01-24T00:02:45.118Z,96444.00
2024-01-24T00:03:45.153Z,96450.00
2024-01-24T00:04:45.125Z,96454.00
2024-01-24T00:05:45.135Z,96450.00
2024-01-24T00:06:45.247Z,96446.00
2024-01-24T00:07:45.211Z,96443.00
2024-01-24T00:08:45.222Z,96442.00
2024-01-24T00:09:45.343Z,96444.00
2024-01-24T00:10:45.277Z,96443.00
2024-01-24T00:11:45.330Z,96443.00
2024-01-24T00:12:45.408Z,96444.00
2024-01-24T00:13:45.355Z,96443.00
2024-01-24T00:14:45.412Z,96442.00
2024-01-24T00:15:45.509Z,96440.00
2024-01-24T00:16:45.523Z,96440.00
2024-01-24T00:17:45.539Z,96440.00
2024-01-24T00:18:45.525Z,96439.00
2024-01-24T00:19:45.607Z,96442.00
2024-01-24T00:20:45.565Z,96441.00
2024-01-24T00:21:45.693Z,96437.00
2024-01-24T00:22:45.626Z,96425.00
2024-01-24T00:23:45.657Z,96425.00
2024-01-24T00:24:45.766Z,96431.00
2024-01-24T00:25:45.692Z,96435.00
2024-01-24T00:26:46.018Z,96434.00
2024-01-24T00:27:45.756Z,96431.00
2024-01-24T00:28:45.726Z,96429.00
2024-01-24T00:29:45.789Z,96421.00
2024-01-24T00:30:45.856Z,96413.00
2024-01-24T00:31:45.859Z,96408.00
2024-01-24T00:32:45.875Z,96407.00
2024-01-24T00:33:45.956Z,96404.00
2024-01-24T00:34:46.038Z,96406.00
2024-01-24T00:35:45.957Z,96408.00
2024-01-24T00:36:46.037Z,96405.00
2024-01-24T00:37:45.995Z,96411.00
2024-01-24T00:38:46.049Z,96408.00
2024-01-24T00:39:46.091Z,96406.00
2024-01-24T00:40:46.112Z,96403.00
2024-01-24T00:41:46.136Z,96403.00
2024-01-24T00:42:46.236Z,96402.00
2024-01-24T00:43:46.190Z,96402.00
2024-01-24T00:44:46.197Z,96410.00
2024-01-24T00:45:46.254Z,96411.00
2024-01-24T00:46:46.259Z,96409.00
2024-01-24T00:47:46.250Z,96409.00
2024-01-24T00:48:46.402Z,96412.00
2024-01-24T00:49:46.312Z,96414.00
2024-01-24T00:50:46.346Z,96411.00
2024-01-24T00:51:46.461Z,96405.00
2024-01-24T00:52:46.409Z,96407.00
2024-01-24T00:53:46.410Z,96410.00
2024-01-24T00:54:46.536Z,96409.00
2024-01-24T00:55:47.407Z,96408.00
2024-01-24T00:56:46.543Z,96407.00
2024-01-24T00:57:46.590Z,96406.00
2024-01-24T00:58:46.552Z,96409.00
2024-01-24T00:59:46.585Z,96408.00
2024-01-24T01:00:46.652Z,96407.00
2024-01-24T01:01:47.053Z,96407.00
2024-01-24T01:02:46.626Z,96407.00
2024-01-24T01:03:46.752Z,96408.00
2024-01-24T01:04:46.701Z,96409.00
2024-01-24T01:05:46.788Z,96413.00
2024-01-24T01:06:46.824Z,96410.00
2024-01-24T01:07:46.826Z,96411.00
2024-01-24T01:08:46.832Z,96411.00
2024-01-24T01:09:46.916Z,96407.00
2024-01-24T01:10:46.901Z,96408.00
2024-01-24T01:11:46.909Z,96411.00
2024-01-24T01:12:47.015Z,96413.00
2024-01-24T01:13:46.965Z,96405.00
2024-01-24T01:14:47.032Z,96400.00
2024-01-24T01:15:47.010Z,96399.00
2024-01-24T01:16:47.109Z,96398.00
2024-01-24T01:17:47.102Z,96403.00
2024-01-24T01:18:47.142Z,96404.00
2024-01-24T01:19:47.124Z,96406.00
2024-01-24T01:20:47.133Z,96407.00
2024-01-24T01:21:49.882Z,96406.00
2024-01-24T01:22:47.231Z,96403.00
2024-01-24T01:23:47.187Z,96403.00
2024-01-24T01:24:47.307Z,96404.00
2024-01-24T01:25:47.207Z,96407.00
2024-01-24T01:26:47.193Z,96408.00
2024-01-24T01:27:47.251Z,96405.00
2024-01-24T01:28:47.172Z,96398.00
2024-01-24T01:29:47.222Z,96396.00
2024-01-24T01:30:47.252Z,96392.00
2024-01-24T01:31:47.662Z,96386.00
2024-01-24T01:32:47.210Z,96379.00
2024-01-24T01:33:47.320Z,96372.00
2024-01-24T01:34:47.355Z,96369.00
2024-01-24T01:35:47.222Z,96366.00
2024-01-24T01:36:47.248Z,96362.00
2024-01-24T01:37:47.229Z,96359.00
2024-01-24T01:38:47.185Z,96362.00
2024-01-24T01:39:47.238Z,96363.00
2024-01-24T01:40:47.206Z,96361.00
2024-01-24T01:41:47.571Z,96364.00
2024-01-24T01:42:47.334Z,96358.00
2024-01-24T01:43:47.233Z,96356.00
2024-01-24T01:44:47.220Z,96357.00
2024-01-24T01:45:47.246Z,96355.00
2024-01-24T01:46:47.247Z,96352.00
2024-01-24T01:47:47.269Z,96353.00
2024-01-24T01:48:47.279Z,96351.00
2024-01-24T01:49:47.400Z,96347.00
2024-01-24T01:50:49.453Z,96344.00
2024-01-24T01:51:47.279Z,96349.00
2024-01-24T01:52:47.230Z,96346.00
2024-01-24T01:53:47.246Z,96342.00
2024-01-24T01:54:47.262Z,96331.00
2024-01-24T01:55:47.261Z,96323.00
2024-01-24T01:56:47.579Z,96323.00
2024-01-24T01:57:47.265Z,96322.00
2024-01-24T01:58:47.221Z,96320.00
2024-01-24T01:59:47.228Z,96312.00
2024-01-24T02:00:47.311Z,96304.00
2024-01-24T02:01:47.249Z,96304.00
2024-01-24T02:02:47.268Z,96309.00
2024-01-24T02:03:47.571Z,96309.00
2024-01-24T02:04:47.235Z,96313.00
2024-01-24T02:05:47.251Z,96311.00
2024-01-24T02:06:47.343Z,96308.00
2024-01-24T02:07:47.568Z,96308.00
2024-01-24T02:08:47.248Z,96314.00
2024-01-24T02:09:47.311Z,96322.00
2024-01-24T02:10:47.261Z,96322.00
2024-01-24T02:11:47.281Z,96318.00
2024-01-24T02:12:47.346Z,96311.00
2024-01-24T02:13:47.280Z,96308.00
2024-01-24T02:14:47.227Z,96309.00
2024-01-24T02:15:47.323Z,96308.00
2024-01-24T02:16:47.249Z,96304.00
2024-01-24T02:17:47.281Z,96298.00
2024-01-24T02:18:47.346Z,96293.00
2024-01-24T02:19:47.352Z,96289.00
2024-01-24T02:20:47.278Z,96286.00
2024-01-24T02:21:47.624Z,96291.00
2024-01-24T02:22:47.252Z,96295.00
2024-01-24T02:23:47.316Z,96289.00
2024-01-24T02:24:47.308Z,96277.00
2024-01-24T02:25:47.318Z,96273.00
2024-01-24T02:26:47.588Z,96270.00
2024-01-24T02:27:48.045Z,96257.00
2024-01-24T02:28:47.304Z,96252.00
2024-01-24T02:29:47.296Z,96253.00
2024-01-24T02:30:47.366Z,96254.00
2024-01-24T02:31:47.316Z,96257.00
2024-01-24T02:32:47.396Z,96251.00
2024-01-24T02:33:47.387Z,96251.00
2024-01-24T02:34:47.414Z,96251.00
2024-01-24T02:35:47.293Z,96251.00
2024-01-24T02:36:47.575Z,96247.00
2024-01-24T02:37:47.282Z,96249.00
2024-01-24T02:38:47.299Z,96252.00
2024-01-24T02:39:47.337Z,96249.00
2024-01-24T02:40:47.290Z,96247.00
2024-01-24T02:41:47.579Z,96249.00
2024-01-24T02:42:47.330Z,96249.00
2024-01-24T02:43:47.286Z,96245.00
2024-01-24T02:44:47.332Z,96250.00
2024-01-24T02:45:47.407Z,96250.00
2024-01-24T02:46:47.593Z,96253.00
2024-01-24T02:47:47.363Z,96252.00
2024-01-24T02:48:47.407Z,96254.00
2024-01-24T02:49:47.419Z,96253.00
2024-01-24T02:50:47.343Z,96251.00
2024-01-24T02:51:47.607Z,96250.00
2024-01-24T02:52:47.363Z,96244.00
2024-01-24T02:53:47.296Z,96240.00
2024-01-24T02:54:47.319Z,96238.00
2024-01-24T02:55:47.333Z,96238.00
2024-01-24T02:56:47.578Z,96238.00
2024-01-24T02:57:47.350Z,96238.00
2024-01-24T02:58:47.339Z,96236.00
2024-01-24T02:59:47.328Z,96235.00
2024-01-24T03:00:47.398Z,96234.00
2024-01-24T03:01:47.645Z,96232.00
2024-01-24T03:02:47.320Z,96227.00
2024-01-24T03:03:47.472Z,96220.00
2024-01-24T03:04:47.356Z,96217.00
2024-01-24T03:05:47.350Z,96219.00
2024-01-24T03:06:47.736Z,96215.00
2024-01-24T03:07:47.367Z,96212.00
2024-01-24T03:08:47.418Z,96210.00
2024-01-24T03:09:47.482Z,96204.00
2024-01-24T03:10:47.499Z,96198.00
2024-01-24T03:11:47.598Z,96199.00
2024-01-24T03:12:47.511Z,96199.00
2024-01-24T03:13:47.554Z,96195.00
2024-01-24T03:14:47.594Z,96200.00
2024-01-24T03:15:47.611Z,96200.00
2024-01-24T03:16:47.623Z,96195.00
2024-01-24T03:17:47.663Z,96196.00
2024-01-24T03:18:47.723Z,96193.00
2024-01-24T03:19:47.793Z,96190.00
2024-01-24T03:20:47.796Z,96188.00
2024-01-24T03:21:47.801Z,96186.00
2024-01-24T03:22:47.792Z,96188.00
2024-01-24T03:23:47.816Z,96186.00
2024-01-24T03:24:47.860Z,96180.00
2024-01-24T03:25:47.825Z,96175.00
2024-01-24T03:26:47.884Z,96180.00
2024-01-24T03:27:48.020Z,96183.00
2024-01-24T03:28:47.896Z,96183.00
2024-01-24T03:29:47.922Z,96184.00
2024-01-24T03:30:48.008Z,96185.00
2024-01-24T03:31:47.988Z,96179.00
2024-01-24T03:32:48.077Z,96180.00
2024-01-24T03:33:48.088Z,96186.00
2024-01-24T03:34:48.129Z,96188.00
2024-01-24T03:35:48.114Z,96180.00
2024-01-24T03:36:48.188Z,96173.00
2024-01-24T03:37:48.116Z,96176.00
2024-01-24T03:38:48.193Z,96176.00
2024-01-24T03:39:48.253Z,96171.00
2024-01-24T03:40:48.215Z,96172.00
2024-01-24T03:41:48.623Z,96173.00
2024-01-24T03:42:48.421Z,96176.00
2024-01-24T03:43:48.352Z,96181.00
2024-01-24T03:44:48.351Z,96183.00
2024-01-24T03:45:48.421Z,96181.00
2024-01-24T03:46:48.397Z,96179.00
2024-01-24T03:47:48.428Z,96178.00
2024-01-24T03:48:48.578Z,96171.00
2024-01-24T03:49:48.537Z,96170.00
2024-01-24T03:50:48.445Z,96170.00
2024-01-24T03:51:48.508Z,96169.00
2024-01-24T03:52:48.530Z,96171.00
2024-01-24T03:53:48.568Z,96167.00
2024-01-24T03:54:48.608Z,96167.00
2024-01-24T03:55:48.613Z,96166.00
2024-01-24T03:56:49.130Z,96170.00
2024-01-24T03:57:48.693Z,96168.00
2024-01-24T03:58:48.723Z,96170.00
2024-01-24T03:59:48.757Z,96168.00
2024-01-24T04:00:48.814Z,96164.00
2024-01-24T04:01:48.817Z,96162.00
2024-01-24T04:02:48.813Z,96162.00
2024-01-24T04:03:48.931Z,96165.00
2024-01-24T04:04:48.948Z,96164.00
2024-01-24T04:05:48.908Z,96159.00
2024-01-24T04:06:49.096Z,96160.00
2024-01-24T04:07:48.907Z,96150.00
2024-01-24T04:08:48.966Z,96151.00
2024-01-24T04:09:49.106Z,96155.00
2024-01-24T04:10:49.024Z,96162.00
2024-01-24T04:11:49.012Z,96164.00
2024-01-24T04:12:49.151Z,96164.00
2024-01-24T04:13:49.052Z,96162.00
2024-01-24T04:14:49.055Z,96164.00
2024-01-24T04:15:49.137Z,96159.00
2024-01-24T04:16:49.627Z,96150.00
2024-01-24T04:17:49.172Z,96149.00
2024-01-24T04:18:49.226Z,96145.00
2024-01-24T04:19:49.267Z,96144.00
2024-01-24T04:20:49.307Z,96142.00
2024-01-24T04:21:49.650Z,96140.00
2024-01-24T04:22:49.301Z,96140.00
2024-01-24T04:23:49.331Z,96137.00
2024-01-24T04:24:49.427Z,96140.00
2024-01-24T04:25:49.378Z,96142.00
2024-01-24T04:26:49.656Z,96134.00
2024-01-24T04:27:49.428Z,96129.00
2024-01-24T04:28:49.444Z,96133.00
2024-01-24T04:29:49.441Z,96129.00
2024-01-24T04:30:49.549Z,96133.00
2024-01-24T04:31:57.050Z,96142.00
2024-01-24T04:32:57.042Z,96148.00
2024-01-24T04:33:57.040Z,96150.00
2024-01-24T04:34:58.430Z,96151.00
2024-01-24T04:35:56.944Z,96152.00
2024-01-24T04:36:57.443Z,96156.00
2024-01-24T04:37:56.990Z,96150.00
2024-01-24T04:38:56.993Z,96152.00
2024-01-24T04:39:57.029Z,96155.00
2024-01-24T04:40:56.967Z,96156.00
2024-01-24T04:42:05.289Z,96154.00
2024-01-24T04:42:58.079Z,96148.00
2024-01-24T04:43:56.991Z,96141.00
2024-01-24T04:44:57.000Z,96140.00
2024-01-24T04:45:57.050Z,96142.00
2024-01-24T04:46:57.023Z,96135.00
2024-01-24T04:47:56.987Z,96137.00
2024-01-24T04:48:57.120Z,96138.00
2024-01-24T04:49:57.086Z,96140.00
2024-01-24T04:50:56.988Z,96136.00
2024-01-24T04:51:57.455Z,96143.00
2024-01-24T04:52:56.981Z,96152.00
2024-01-24T04:53:56.997Z,96151.00
2024-01-24T04:54:57.045Z,96154.00
2024-01-24T04:55:56.983Z,96151.00
2024-01-24T04:56:56.969Z,96145.00
2024-01-24T04:57:57.057Z,96141.00
2024-01-24T04:58:56.987Z,96149.00
2024-01-24T04:59:57.890Z,96142.00
2024-01-24T05:00:57.127Z,96144.00
2024-01-24T05:01:57.009Z,96146.00
2024-01-24T05:02:57.005Z,96142.00
2024-01-24T05:03:57.124Z,96138.00
2024-01-24T05:04:57.069Z,96145.00
2024-01-24T05:06:04.314Z,96138.00
2024-01-24T05:06:58.192Z,96133.00
2024-01-24T05:07:57.116Z,96135.00
2024-01-24T05:08:57.096Z,96144.00
2024-01-24T05:09:57.169Z,96148.00
2024-01-24T05:10:57.136Z,96155.00
2024-01-24T05:11:57.430Z,96153.00
2024-01-24T05:12:57.191Z,96151.00
2024-01-24T05:13:57.136Z,96159.00
2024-01-24T05:14:57.160Z,96162.00
2024-01-24T05:15:57.188Z,96163.00
2024-01-24T05:16:57.136Z,96162.00
2024-01-24T05:17:57.226Z,96153.00
2024-01-24T05:18:57.162Z,96154.00
2024-01-24T05:19:57.124Z,96155.00
2024-01-24T05:20:57.135Z,96146.00
2024-01-24T05:21:57.165Z,96139.00
2024-01-24T05:22:57.149Z,96136.00
2024-01-24T05:23:57.127Z,96136.00
2024-01-24T05:24:57.153Z,96136.00
2024-01-24T05:25:57.102Z,96134.00
2024-01-24T05:26:57.119Z,96137.00
2024-01-24T05:27:57.192Z,96135.00
2024-01-24T05:28:57.154Z,96141.00
2024-01-24T05:29:57.190Z,96137.00
2024-01-24T05:30:57.255Z,96123.00
2024-01-24T05:31:57.408Z,96128.00
2024-01-24T05:32:57.278Z,96130.00
2024-01-24T05:33:57.324Z,96123.00
2024-01-24T05:34:57.318Z,96120.00
2024-01-24T05:35:57.300Z,96122.00
2024-01-24T05:36:57.377Z,96114.00
2024-01-24T05:37:57.369Z,96111.00
2024-01-24T05:38:57.384Z,96121.00
2024-01-24T05:39:57.448Z,96118.00
2024-01-24T05:40:57.465Z,96105.00
2024-01-24T05:41:57.490Z,96104.00
2024-01-24T05:42:57.515Z,96109.00
2024-01-24T05:43:57.551Z,96118.00
2024-01-24T05:44:57.528Z,96112.00
2024-01-24T05:45:57.667Z,96114.00
2024-01-24T05:46:57.632Z,96118.00
2024-01-24T05:47:57.671Z,96116.00
2024-01-24T05:48:57.814Z,96120.00
2024-01-24T05:49:57.727Z,96122.00
2024-01-24T05:50:57.704Z,96127.00
2024-01-24T05:51:58.032Z,96125.00
2024-01-24T05:52:57.718Z,96117.00
2024-01-24T05:53:57.770Z,96123.00
2024-01-24T05:54:57.905Z,96118.00
2024-01-24T05:55:57.822Z,96117.00
2024-01-24T05:56:57.869Z,96108.00
2024-01-24T05:57:57.972Z,96104.00
2024-01-24T05:58:57.907Z,96111.00
2024-01-24T05:59:57.954Z,96110.00
2024-01-24T06:00:58.023Z,96102.00
2024-01-24T06:01:58.026Z,96095.00
2024-01-24T06:02:57.987Z,96095.00
2024-01-24T06:03:58.094Z,96099.00
2024-01-24T06:04:58.123Z,96090.00
2024-01-24T06:05:58.170Z,96093.00
2024-01-24T06:06:58.585Z,96098.00
2024-01-24T06:07:58.110Z,96091.00
2024-01-24T06:08:58.201Z,96087.00
2024-01-24T06:09:58.160Z,96093.00
2024-01-24T06:10:58.192Z,96095.00
2024-01-24T06:11:58.203Z,96092.00
2024-01-24T06:12:58.253Z,96081.00
2024-01-24T06:13:58.296Z,96071.00
2024-01-24T06:14:58.296Z,96076.00
2024-01-24T06:15:58.338Z,96073.00
2024-01-24T06:16:58.397Z,96076.00
2024-01-24T06:17:58.406Z,96070.00
2024-01-24T06:18:58.464Z,96075.00
2024-01-24T06:19:58.432Z,96076.00
2024-01-24T06:20:58.468Z,96076.00
2024-01-24T06:21:58.517Z,96074.00
2024-01-24T06:22:58.593Z,96084.00
2024-01-24T06:23:58.526Z,96079.00
2024-01-24T06:24:58.759Z,96083.00
2024-01-24T06:25:58.609Z,96092.00
2024-01-24T06:26:58.604Z,96086.00
2024-01-24T06:27:58.974Z,96086.00
2024-01-24T06:28:58.680Z,96081.00
2024-01-24T06:30:17.850Z,96078.00
2024-01-24T06:30:59.731Z,96072.00
2024-01-24T06:31:58.759Z,96066.00
2024-01-24T06:32:58.822Z,96070.00
2024-01-24T06:33:58.843Z,96076.00
2024-01-24T06:34:58.737Z,96073.00
2024-01-24T06:35:58.710Z,96074.00
2024-01-24T06:36:58.859Z,96078.00
2024-01-24T06:37:58.687Z,96065.00
2024-01-24T06:38:58.690Z,96067.00
2024-01-24T06:39:58.835Z,96073.00
2024-01-24T06:40:59.471Z,96074.00
2024-01-24T06:41:58.723Z,96073.00
2024-01-24T06:42:58.862Z,96082.00
2024-01-24T06:43:58.759Z,96081.00
2024-01-24T06:44:58.716Z,96087.00
2024-01-24T06:45:58.787Z,96089.00
2024-01-24T06:46:58.684Z,96082.00
2024-01-24T06:47:58.989Z,96078.00
2024-01-24T06:48:58.824Z,96073.00
2024-01-24T06:49:58.760Z,96068.00
2024-01-24T06:50:59.247Z,96069.00
2024-01-24T06:51:58.748Z,96060.00
2024-01-24T06:52:59.740Z,96061.00
2024-01-24T06:53:58.790Z,96068.00
2024-01-24T06:54:59.031Z,96067.00
2024-01-24T06:55:58.933Z,96063.00
2024-01-24T06:56:58.957Z,96055.00
2024-01-24T06:57:58.960Z,96066.00
2024-01-24T06:58:58.916Z,96063.00
2024-01-24T06:59:58.940Z,96056.00
2024-01-24T07:00:58.970Z,96063.00
2024-01-24T07:01:59.008Z,96070.00
2024-01-24T07:02:59.007Z,96060.00
2024-01-24T07:03:59.101Z,96052.00
2024-01-24T07:04:59.089Z,96054.00
2024-01-24T07:05:59.058Z,96049.00
2024-01-24T07:06:59.131Z,96052.00
2024-01-24T07:07:59.111Z,96053.00
2024-01-24T07:08:59.116Z,96043.00
2024-01-24T07:09:59.236Z,96046.00
2024-01-24T07:10:59.960Z,96048.00
2024-01-24T07:11:59.204Z,96043.00
2024-01-24T07:12:59.304Z,96041.00
2024-01-24T07:13:59.324Z,96054.00
2024-01-24T07:14:59.255Z,96049.00
2024-01-24T07:15:59.283Z,96048.00
2024-01-24T07:16:59.330Z,96048.00
2024-01-24T07:17:59.397Z,96057.00
2024-01-24T07:18:59.479Z,96067.00
2024-01-24T07:19:59.378Z,96060.00
2024-01-24T07:20:59.368Z,96055.00
2024-01-24T07:22:01.804Z,96057.00
2024-01-24T07:22:59.424Z,96064.00
2024-01-24T07:23:59.430Z,96053.00
2024-01-24T07:24:59.477Z,96042.00
2024-01-24T07:25:59.428Z,96053.00
2024-01-24T07:26:59.433Z,96048.00
2024-01-24T07:27:59.421Z,96048.00
2024-01-24T07:28:59.425Z,96042.00
2024-01-24T07:29:59.412Z,96039.00
2024-01-24T07:30:59.527Z,96038.00
2024-01-24T07:31:59.431Z,96042.00
2024-01-24T07:32:59.480Z,96044.00
2024-01-24T07:33:59.488Z,96040.00
2024-01-24T07:34:59.619Z,96032.00
2024-01-24T07:35:59.437Z,96031.00
2024-01-24T07:36:59.464Z,96047.00
2024-01-24T07:37:59.439Z,96057.00
2024-01-24T07:38:59.429Z,96049.00
2024-01-24T07:39:59.551Z,96046.00
2024-01-24T07:40:59.442Z,96042.00
2024-01-24T07:41:59.493Z,96040.00
2024-01-24T07:42:59.626Z,96038.00
2024-01-24T07:43:59.470Z,96034.00
2024-01-24T07:44:59.487Z,96037.00
2024-01-24T07:45:59.457Z,96036.00
2024-01-24T07:46:59.449Z,96024.00
2024-01-24T07:47:59.547Z,96024.00
2024-01-24T07:48:59.487Z,96026.00
2024-01-24T07:49:59.678Z,96018.00
2024-01-24T07:50:59.467Z,96018.00
2024-01-24T07:51:59.481Z,96018.00
2024-01-24T07:52:59.480Z,96020.00
2024-01-24T07:53:59.447Z,96005.00
2024-01-24T07:55:00.508Z,96006.00
2024-01-24T07:56:06.890Z,96003.00
2024-01-24T07:57:00.454Z,96018.00
2024-01-24T07:57:59.558Z,96025.00
2024-01-24T07:58:59.467Z,96016.00
2024-01-24T07:59:59.479Z,96021.00
2024-01-24T08:00:59.537Z,96035.00
2024-01-24T08:01:59.550Z,96035.00
2024-01-24T08:02:59.462Z,96029.00
2024-01-24T08:03:59.555Z,96041.00
2024-01-24T08:04:59.525Z,96040.00
2024-01-24T08:05:59.529Z,96012.00
2024-01-24T08:06:59.511Z,96004.00
2024-01-24T08:07:59.475Z,96016.00
2024-01-24T08:08:59.457Z,96030.00
2024-01-24T08:09:59.539Z,96014.00
2024-01-24T08:10:59.486Z,96032.00
2024-01-24T08:11:59.511Z,96030.00
2024-01-24T08:12:59.596Z,96028.00
2024-01-24T08:13:59.572Z,96011.00
2024-01-24T08:14:59.626Z,96027.00
2024-01-24T08:15:59.862Z,96022.00
2024-01-24T08:16:59.703Z,96004.00
2024-01-24T08:18:00.107Z,95989.00
2024-01-24T08:18:59.945Z,95994.00
2024-01-24T08:19:59.817Z,95998.00
2024-01-24T08:20:59.869Z,95994.00
2024-01-24T08:21:59.962Z,95995.00
2024-01-24T08:23:00.083Z,96007.00
2024-01-24T08:23:59.952Z,95996.00
2024-01-24T08:25:00.009Z,95999.00
2024-01-24T08:26:00.005Z,95997.00
2024-01-24T08:27:00.354Z,95979.00
2024-01-24T08:28:00.204Z,95990.00
2024-01-24T08:29:00.120Z,95996.00
2024-01-24T08:30:00.201Z,95991.00
2024-01-24T08:31:00.173Z,96008.00
2024-01-24T08:32:00.231Z,95987.00
2024-01-24T08:33:00.323Z,95984.00
2024-01-24T08:34:00.488Z,95987.00
2024-01-24T08:35:00.588Z,95996.00
2024-01-24T08:36:00.393Z,96002.00
2024-01-24T08:37:00.501Z,96001.00
2024-01-24T08:38:00.514Z,96001.00
2024-01-24T08:39:00.570Z,95984.00
2024-01-24T08:40:00.650Z,95983.00
2024-01-24T08:41:00.681Z,95984.00
2024-01-24T08:42:00.737Z,95980.00
2024-01-24T08:43:01.040Z,95989.00
2024-01-24T08:44:00.850Z,95990.00
2024-01-24T08:45:00.934Z,95983.00
2024-01-24T08:46:01.055Z,95984.00
2024-01-24T08:47:01.030Z,95994.00
2024-01-24T08:48:01.099Z,95999.00
2024-01-24T08:49:01.230Z,95984.00
2024-01-24T08:50:01.283Z,95974.00
2024-01-24T08:51:01.312Z,95988.00
2024-01-24T08:52:01.474Z,95995.00
2024-01-24T08:53:01.521Z,95991.00
2024-01-24T08:54:01.434Z,95958.00
2024-01-24T08:55:01.740Z,95973.00
2024-01-24T08:56:01.545Z,95987.00
2024-01-24T08:57:01.513Z,95985.00
2024-01-24T08:58:02.143Z,95969.00
2024-01-24T08:59:01.602Z,95981.00
2024-01-24T09:00:01.581Z,95990.00
2024-01-24T09:01:01.711Z,95996.00
2024-01-24T09:02:01.680Z,95996.00
2024-01-24T09:03:02.008Z,95991.00
2024-01-24T09:04:01.804Z,95994.00
2024-01-24T09:05:01.890Z,96003.00
2024-01-24T09:06:01.885Z,95991.00
2024-01-24T09:07:01.993Z,95978.00
2024-01-24T09:08:01.853Z,95968.00
2024-01-24T09:09:01.995Z,95972.00
2024-01-24T09:10:01.988Z,95973.00
2024-01-24T09:11:01.976Z,95969.00
2024-01-24T09:12:02.072Z,95974.00
2024-01-24T09:13:02.663Z,95972.00
2024-01-24T09:14:02.109Z,95976.00
2024-01-24T09:15:02.216Z,95967.00
2024-01-24T09:16:02.294Z,95962.00
2024-01-24T09:17:02.223Z,95961.00
2024-01-24T09:18:02.376Z,95958.00
2024-01-24T09:19:02.547Z,95975.00
2024-01-24T09:20:02.608Z,95966.00
2024-01-24T09:21:02.410Z,95976.00
2024-01-24T09:22:02.834Z,95989.00
2024-01-24T09:23:03.025Z,95988.00
2024-01-24T09:24:02.578Z,95981.00
2024-01-24T09:25:06.419Z,95969.00
2024-01-24T09:26:03.660Z,95979.00
2024-01-24T09:27:02.644Z,95992.00
2024-01-24T09:28:03.078Z,95973.00
2024-01-24T09:29:02.659Z,95973.00
2024-01-24T09:30:02.615Z,95978.00
2024-01-24T09:31:02.692Z,95969.00
2024-01-24T09:32:02.637Z,95966.00
2024-01-24T09:33:03.080Z,95960.00
2024-01-24T09:34:02.753Z,95974.00
2024-01-24T09:35:02.905Z,95988.00
2024-01-24T09:36:02.761Z,95992.00
2024-01-24T09:37:02.753Z,95967.00
2024-01-24T09:38:03.047Z,95963.00
2024-01-24T09:39:02.829Z,95960.00
2024-01-24T09:40:02.950Z,95958.00
2024-01-24T09:41:02.956Z,95964.00
2024-01-24T09:42:02.950Z,95946.00
2024-01-24T09:43:03.144Z,95934.00
2024-01-24T09:44:02.970Z,95959.00
2024-01-24T09:45:03.032Z,95993.00
2024-01-24T09:46:03.065Z,95988.00
2024-01-24T09:47:03.102Z,95945.00
2024-01-24T09:48:03.118Z,95970.00
2024-01-24T09:49:03.296Z,95942.00
2024-01-24T09:50:03.196Z,95929.00
2024-01-24T09:51:03.220Z,95932.00
2024-01-24T09:52:03.313Z,95934.00
2024-01-24T09:53:03.560Z,95925.00
2024-01-24T09:54:03.364Z,95932.00
2024-01-24T09:55:03.558Z,95916.00
2024-01-24T09:56:03.460Z,95920.00
2024-01-24T09:57:03.562Z,95931.00
2024-01-24T09:58:04.170Z,95929.00
2024-01-24T09:59:03.574Z,95930.00
2024-01-24T10:00:03.671Z,95927.00
2024-01-24T10:01:03.833Z,95927.00
2024-01-24T10:02:03.780Z,95911.00
2024-01-24T10:03:04.077Z,95915.00
2024-01-24T10:04:03.983Z,95922.00
2024-01-24T10:05:03.840Z,95930.00
2024-01-24T10:06:03.909Z,95923.00
2024-01-24T10:07:04.072Z,95918.00
2024-01-24T10:08:04.057Z,95918.00
2024-01-24T10:09:06.843Z,95908.00
2024-01-24T10:10:03.984Z,95896.00
2024-01-24T10:11:03.931Z,95923.00
2024-01-24T10:12:03.878Z,95901.00
2024-01-24T10:13:04.014Z,95893.00
2024-01-24T10:14:03.923Z,95902.00
2024-01-24T10:15:03.900Z,95881.00
2024-01-24T10:16:05.462Z,95899.00
2024-01-24T10:17:03.907Z,95907.00
2024-01-24T10:18:04.007Z,95896.00
2024-01-24T10:19:04.060Z,95917.00
2024-01-24T10:20:04.061Z,95919.00
2024-01-24T10:21:03.981Z,95890.00
2024-01-24T10:22:06.578Z,95869.00
2024-01-24T10:23:04.073Z,95864.00
2024-01-24T10:24:03.932Z,95891.00
2024-01-24T10:25:04.064Z,95906.00
2024-01-24T10:26:03.938Z,95913.00
2024-01-24T10:27:03.951Z,95904.00
2024-01-24T10:28:03.968Z,95892.00
2024-01-24T10:29:03.908Z,95898.00
2024-01-24T10:30:03.907Z,95892.00
2024-01-24T10:31:03.983Z,95879.00
2024-01-24T10:32:03.928Z,95875.00
2024-01-24T10:33:04.164Z,95896.00
2024-01-24T10:34:03.974Z,95887.00
2024-01-24T10:35:04.154Z,95879.00
2024-01-24T10:36:10.570Z,95889.00
2024-01-24T10:37:04.948Z,95872.00
2024-01-24T10:38:03.919Z,95866.00
2024-01-24T10:39:03.974Z,95872.00
2024-01-24T10:40:04.023Z,95870.00
2024-01-24T10:41:03.916Z,95870.00
2024-01-24T10:42:07.573Z,95857.00
2024-01-24T10:43:05.037Z,95871.00
2024-01-24T10:44:03.903Z,95887.00
2024-01-24T10:45:03.926Z,95882.00
2024-01-24T10:46:03.971Z,95864.00
2024-01-24T10:47:03.935Z,95861.00
2024-01-24T10:48:04.209Z,95871.00
2024-01-24T10:49:04.037Z,95870.00
2024-01-24T10:50:04.003Z,95877.00
2024-01-24T10:51:03.956Z,95865.00
2024-01-24T10:52:04.021Z,95859.00
2024-01-24T10:53:03.962Z,95883.00
2024-01-24T10:54:03.918Z,95883.00
2024-01-24T10:55:04.181Z,95846.00
2024-01-24T10:56:03.971Z,95832.00
2024-01-24T10:57:03.935Z,95852.00
2024-01-24T10:58:05.826Z,95848.00
2024-01-24T10:59:04.072Z,95830.00
2024-01-24T11:00:04.120Z,95817.00
2024-01-24T11:01:04.204Z,95815.00
2024-01-24T11:02:04.189Z,95807.00
2024-01-24T11:03:04.317Z,95824.00
2024-01-24T11:04:05.754Z,95827.00
2024-01-24T11:05:04.315Z,95810.00
2024-01-24T11:06:04.305Z,95806.00
2024-01-24T11:07:04.425Z,95812.00
2024-01-24T11:08:04.560Z,95818.00
2024-01-24T11:09:04.390Z,95830.00
2024-01-24T11:10:06.795Z,95826.00
2024-01-24T11:11:04.390Z,95791.00
2024-01-24T11:12:04.434Z,95813.00
2024-01-24T11:13:04.586Z,95810.00
2024-01-24T11:14:04.424Z,95805.00
2024-01-24T11:15:04.427Z,95805.00
2024-01-24T11:16:05.831Z,95812.00
2024-01-24T11:17:04.675Z,95802.00
2024-01-24T11:18:04.481Z,95802.00
2024-01-24T11:19:04.541Z,95799.00
2024-01-24T11:20:04.500Z,95786.00
2024-01-24T11:21:04.455Z,95801.00
2024-01-24T11:22:10.449Z,95783.00
2024-01-24T11:23:05.456Z,95793.00
2024-01-24T11:24:04.426Z,95805.00
2024-01-24T11:25:04.572Z,95802.00
2024-01-24T11:26:04.443Z,95793.00
2024-01-24T11:27:04.438Z,95785.00
2024-01-24T11:28:04.637Z,95778.00
2024-01-24T11:29:04.414Z,95784.00
2024-01-24T11:30:04.414Z,95780.00
2024-01-24T11:31:04.590Z,95774.00
2024-01-24T11:32:07.320Z,95761.00
2024-01-24T11:33:05.550Z,95778.00
2024-01-24T11:34:04.517Z,95768.00
2024-01-24T11:35:04.533Z,95766.00
2024-01-24T11:36:04.435Z,95769.00
2024-01-24T11:37:04.470Z,95763.00
2024-01-24T11:38:12.999Z,95747.00
2024-01-24T11:39:05.455Z,95728.00
2024-01-24T11:40:04.533Z,95730.00
2024-01-24T11:41:04.508Z,95723.00
2024-01-24T11:42:04.465Z,95727.00
2024-01-24T11:43:04.499Z,95735.00
2024-01-24T11:44:04.471Z,95737.00
2024-01-24T11:45:04.446Z,95740.00